РУС

ENG

 
  Pireps - S7
 

Рейс SBI8434

  • Выполнял: Niko Rodriguez
  • Аэропорт отправления: Domodedovo Airport (UUDD)
  • Аэропорт назначения: Nizhny Novgorod (UWGG)
  • Тип ВС: A319-112 (VP-BHF)
  • Время полёта: 00.55
  • Дата полёта: 24.04.2017
  • Маршрут: SF A930 RUSAK A244 MB
  • Статус: Одобрен

Детали полёта
Gross Revenue:
(102 load / $ 5, 000.00 per unit
$ 510, 000.00
Fuel Cost:
(2271 fuel used @ 5.1 / unit)
$ 11, 582.10


Дополнительная информация о полёте:

Лог

Aircraft Used in flight is Feelthere A320 CFM Siberia Airlines(VP-BCZ)
20:25Flaps 2 Selected at 600ft and 3kts
20:25 Boarding
20:25 Engine 1 Started
20:25 Engine 2 Started
20:25 Navigation Lights ON at 600 AGL
20:25 Beacon Lights ON at 600 AGL
20:25 Brakes are On
20:25 Brakes are Released
20:28 Strobe Lights ON at 600 AGL
20:28 Landing Lights ON at 600 AGL
20:28 Taxi Lights ON at 600 AGL
20:30 Spoilers Armed
20:30 You Took off @ 132 Knots and Flaps at Position 2
Departure Weather
UUDD 241600Z 25003MPS 9999 FEW043CB 04/01 Q1007 R88/290095 NOSIGrn
20:30 TOC Reached
20:30 Landing Gear Up @ 140 Knots and 640 Feet
20:31Flaps Retracted at 2190ft and 166kts
20:32 Below 10000 feet you are not allowed to go over 250 knots
20:32 You exceeded maximum bank angle
20:32 Landing Lights OFF at 5880 AGL
20:32 Taxi Lights OFF at 5990 AGL
20:35 Spoilers Disarmed
20:51 Spoilers Armed
20:58 Landing Lights ON at 16560 AGL
20:58 Taxi Lights ON at 16400 AGL
21:05 Spoilers Disarmed
21:05Flaps 1 Selected at 5810ft and 218kts
21:10 Spoilers Armed
21:14Flaps 3 Selected at 1780ft and 170kts
21:15 Landing Gear Down @ 128 Knots and 1770 Feet
21:15Flaps 4 Selected at 1780ft and 129kts
21:15Flaps 5 Selected at 1800ft and 129kts
21:20 You Landed @ 117 Knots and with -350 Vertical Speed
Arrival Weather
UWGG 241600Z 02003MPS 9999 SCT033 07/M02 Q1004 R36L/090060 NOSIG RMK QFE746rn
21:20 Spoilers Disarmed
21:21 Brakes are On
Pirep logged with S7 Tracking 1.0.0.14



Общая оценка полета : 100%




Route Map



 
 
   
 
Новости

23.01.2020 - Работа сайта!

Друзья! 
После долгого перерыва работы сайта - мы занялись его оживлением.
Были жалобы, что не работала регистрация. Теперь работает!
Будут исправляться другие моменты и функционал снова будет доступен в полном объеме.
От лица администрации сайта и компании - приносим свои извинения за неудобства!
Добро пожаловать в S7!

   
 
Авторизация






Регистрация

Восстановить пароль?

Мы в соц. сетях

      



   
 





   
 


   
 


Яндекс.Метрика

www.va-s7.ru 2011-2020
Все права защищены.



Минуточку внимания!
Мы не имеем отношения к торговым маркам "S7" и "Globus" и их представителям.
Эмблемы на сайте являются собственностью соответствующих компаний.

аэронавигационная метеорологическая и любая другая информация с данного ресурса ни в коем случае не должна использоваться для реальных полетов